Time;durP1;ratioP1;P1;durP2;ratioP2;P2;SDS_P1;SDS_P2;PMS_P1;PMS_P2;Temp;Humidity;BMP_temperature;BMP_pressure;BME280_temperature;BME280_humidity;BME280_pressure;Samples;Min_cycle;Max_cycle;Signal;HPM_P1;HPM_P2
2022/07/23 00:00:14;;;;;;;0.50;0.50;;;18.00;99.90;19.10;101654.00;;;;4980700;28;20213;-60
2022/07/23 00:03:59;;;;;;;0.50;0.50;;;18.20;99.90;19.20;101681.00;;;;4998261;28;20279;-61
2022/07/23 00:06:56;;;;;;;0.50;0.50;;;18.30;99.90;19.20;101667.00;;;;4997467;28;20212;-61
2022/07/23 00:09:38;;;;;;;0.50;0.50;;;18.20;99.90;19.30;101671.00;;;;5014185;28;20197;-61
2022/07/23 00:12:17;;;;;;;0.50;0.50;;;18.20;99.90;18.90;101665.00;;;;4997452;28;20240;-61
2022/07/23 00:15:12;;;;;;;0.60;0.60;;;18.00;99.90;18.40;101644.00;;;;4997820;28;20196;-60
2022/07/23 00:18:08;;;;;;;0.57;0.57;;;17.80;99.90;19.00;101681.00;;;;4977012;28;20212;-60
2022/07/23 00:21:04;;;;;;;0.50;0.50;;;17.90;99.90;19.20;101672.00;;;;4997402;28;20217;-60
2022/07/23 00:23:39;;;;;;;1.23;1.13;;;18.10;99.90;19.10;101668.00;;;;4998053;28;20190;-61
2022/07/23 00:26:08;;;;;;;0.50;0.50;;;18.10;99.90;19.00;101668.00;;;;4998315;28;20189;-61
2022/07/23 00:28:51;;;;;;;0.50;0.50;;;18.10;99.90;18.30;101655.00;;;;4998658;28;20630;-61
2022/07/23 00:31:44;;;;;;;0.50;0.50;;;17.80;99.90;18.20;101668.00;;;;4998181;28;20207;-61
2022/07/23 00:34:36;;;;;;;0.50;0.50;;;17.60;99.90;18.60;101666.00;;;;4982092;28;20182;-61
2022/07/23 00:37:25;;;;;;;0.80;0.80;;;17.50;99.90;18.80;101649.00;;;;4978538;28;20251;-61
2022/07/23 00:40:13;;;;;;;0.60;0.60;;;17.70;99.90;18.90;101672.00;;;;4981912;28;20197;-61
2022/07/23 00:42:59;;;;;;;0.60;0.60;;;17.70;99.90;18.70;101674.00;;;;4976935;28;20206;-61
2022/07/23 00:45:57;;;;;;;0.70;0.70;;;17.70;99.90;18.80;101644.00;;;;4981997;28;20195;-61
2022/07/23 00:49:04;;;;;;;0.67;0.67;;;17.60;99.90;18.80;101666.00;;;;4978693;28;20206;-61
2022/07/23 00:51:57;;;;;;;0.60;0.60;;;17.70;99.90;18.50;101664.00;;;;4962920;28;20734;-61
2022/07/23 00:55:17;;;;;;;0.60;0.60;;;17.50;99.90;18.40;101658.00;;;;4996991;28;20180;-60
2022/07/23 00:58:30;;;;;;;0.60;0.60;;;17.40;99.90;18.50;101658.00;;;;5013603;28;20639;-60
2022/07/23 01:01:21;;;;;;;0.70;0.70;;;17.30;99.90;18.30;101659.00;;;;5013575;28;20207;-60
2022/07/23 01:04:10;;;;;;;0.70;0.70;;;17.30;99.90;18.10;101661.00;;;;5014903;28;20187;-60
2022/07/23 01:07:03;;;;;;;0.70;0.70;;;17.20;99.90;17.60;101654.00;;;;4981351;28;20218;-60
2022/07/23 01:09:43;;;;;;;1.33;1.20;;;16.90;99.90;17.70;101648.00;;;;4981233;28;20635;-60
2022/07/23 01:12:19;;;;;;;0.97;0.97;;;16.70;99.90;17.70;101657.00;;;;4981043;28;20304;-61
2022/07/23 01:15:06;;;;;;;0.70;0.70;;;16.80;99.90;17.90;101655.00;;;;4980853;28;20187;-60
2022/07/23 01:17:57;;;;;;;0.80;0.80;;;16.70;99.90;17.70;101659.00;;;;4997162;28;20187;-60
2022/07/23 01:20:54;;;;;;;0.70;0.70;;;16.70;99.90;17.30;101650.00;;;;4981094;28;20189;-60
2022/07/23 01:23:59;;;;;;;0.70;0.70;;;16.60;99.90;17.20;101648.00;;;;4976019;28;20188;-60
2022/07/23 01:26:48;;;;;;;0.60;0.60;;;16.50;99.90;17.30;101642.00;;;;4996890;28;20179;-60
2022/07/23 01:29:46;;;;;;;0.70;0.70;;;16.40;99.90;17.70;101648.00;;;;4997217;28;20241;-60
2022/07/23 01:35:32;;;;;;;0.70;0.70;;;16.70;99.90;17.70;101650.00;;;;5000787;28;20281;-60
2022/07/23 01:38:19;;;;;;;0.70;0.70;;;16.70;99.90;17.80;101651.00;;;;4996677;28;20180;-60
2022/07/23 01:41:01;;;;;;;0.70;0.70;;;16.60;99.90;18.20;101646.00;;;;4980495;28;20226;-60
2022/07/23 01:43:54;;;;;;;0.63;0.63;;;17.00;99.90;17.60;101651.00;;;;4996553;28;20203;-61
2022/07/23 01:50:50;;;;;;;0.70;0.70;;;16.80;99.90;17.80;101649.00;;;;4935340;29;20249;-60
2022/07/23 01:53:36;;;;;;;1.23;1.23;;;16.80;99.90;18.20;101651.00;;;;4995087;28;20207;-60
2022/07/23 01:56:27;;;;;;;0.63;0.63;;;17.00;99.90;17.90;101641.00;;;;5013279;28;20321;-60
2022/07/23 01:59:32;;;;;;;0.60;0.60;;;17.00;99.90;17.40;101644.00;;;;4980817;28;20237;-60
2022/07/23 02:02:18;;;;;;;0.70;0.70;;;16.80;99.90;17.60;101651.00;;;;4980325;28;20645;-60
2022/07/23 02:05:18;;;;;;;0.70;0.70;;;16.70;99.90;18.00;101640.00;;;;4996371;28;20179;-60
2022/07/23 02:12:26;;;;;;;1.43;1.33;;;16.60;99.90;17.60;101649.00;;;;4975478;28;20229;-60
2022/07/23 02:15:12;;;;;;;1.00;1.00;;;16.50;99.90;18.00;101638.00;;;;4995962;28;20187;-60
2022/07/23 02:18:37;;;;;;;0.67;0.67;;;16.80;99.90;17.00;101641.00;;;;4996105;28;20192;-60
2022/07/23 02:21:11;;;;;;;0.70;0.70;;;16.50;99.90;17.50;101651.00;;;;4903890;29;20225;-60
2022/07/23 02:24:05;;;;;;;0.80;0.80;;;16.40;99.90;17.40;101638.00;;;;4953224;29;20263;-60
2022/07/23 02:26:35;;;;;;;0.70;0.70;;;16.30;99.90;17.00;101641.00;;;;4917122;29;20285;-60
2022/07/23 02:29:36;;;;;;;0.70;0.70;;;16.20;99.90;17.70;101648.00;;;;4953353;29;20552;-60
2022/07/23 02:33:01;;;;;;;0.70;0.70;;;16.50;99.90;17.90;101640.00;;;;4934092;29;20218;-60
2022/07/23 02:36:38;;;;;;;0.67;0.67;;;16.70;99.90;17.90;101638.00;;;;4895921;29;20201;-60
2022/07/23 02:39:30;;;;;;;0.80;0.80;;;16.80;99.90;18.00;101649.00;;;;4935017;29;20275;-60
2022/07/23 02:41:56;;;;;;;1.00;1.00;;;17.00;99.90;17.90;101643.00;;;;4938177;29;20194;-61
2022/07/23 02:44:28;;;;;;;0.70;0.70;;;17.00;99.90;17.70;101648.00;;;;4977713;28;20603;-61
2022/07/23 02:47:17;;;;;;;0.80;0.80;;;17.00;99.90;16.70;101607.00;;;;4995724;28;20196;-60
2022/07/23 02:50:16;;;;;;;0.60;0.60;;;16.40;99.90;17.30;101652.00;;;;4979425;28;20186;-60
2022/07/23 02:53:03;;;;;;;0.67;0.67;;;16.30;99.90;17.20;101649.00;;;;4979795;28;20233;-60
2022/07/23 03:14:58;;;;;;;0.70;0.70;;;16.30;99.90;17.20;101676.00;;;;4827080;29;20603;-60
2022/07/23 03:18:22;;;;;;;1.10;1.10;;;16.10;99.90;17.20;101674.00;;;;4836281;29;20236;-60
2022/07/23 03:21:17;;;;;;;0.80;0.80;;;16.20;99.90;16.80;101681.00;;;;4830240;29;20224;-60
2022/07/23 03:23:49;;;;;;;0.90;0.90;;;15.90;99.90;16.70;101660.00;;;;4840202;29;20228;-60
2022/07/23 03:26:25;;;;;;;0.77;0.77;;;15.70;99.90;17.30;101685.00;;;;4839272;29;20249;-60
2022/07/23 03:29:33;;;;;;;0.90;0.90;;;16.00;99.90;17.40;101685.00;;;;4839616;29;20208;-60
2022/07/23 03:32:32;;;;;;;1.33;1.23;;;16.20;99.90;17.60;101683.00;;;;4896706;29;20586;-60
2022/07/23 03:35:19;;;;;;;0.70;0.70;;;16.40;99.90;17.30;101680.00;;;;4925898;29;20267;-60
2022/07/23 03:37:54;;;;;;;0.70;0.70;;;16.40;99.90;17.70;101686.00;;;;4923271;29;20563;-60
2022/07/23 03:40:21;;;;;;;0.73;0.73;;;16.50;99.90;17.40;101683.00;;;;4939420;29;20201;-60
2022/07/23 03:43:04;;;;;;;0.70;0.70;;;16.40;99.90;17.40;101684.00;;;;4923117;29;20690;-60
2022/07/23 03:45:47;;;;;;;1.50;1.50;;;16.30;99.90;17.20;101666.00;;;;4938895;29;20231;-60
2022/07/23 03:48:54;;;;;;;0.90;0.90;;;16.20;99.90;17.10;101689.00;;;;4923530;29;20200;-60
2022/07/23 03:51:40;;;;;;;0.90;0.90;;;16.10;99.90;16.80;101653.00;;;;4939521;29;20307;-60
2022/07/23 03:54:28;;;;;;;0.90;0.90;;;15.90;99.90;17.00;101690.00;;;;4923961;28;20200;-60
2022/07/23 03:57:13;;;;;;;0.90;0.90;;;15.80;99.90;16.90;101695.00;;;;4923779;29;20188;-60
2022/07/23 04:00:03;;;;;;;0.80;0.80;;;15.80;99.90;16.40;101692.00;;;;4923608;29;20199;-60
2022/07/23 04:02:53;;;;;;;0.80;0.80;;;15.60;99.90;16.20;101696.00;;;;4981593;28;20206;-60
2022/07/23 04:05:45;;;;;;;0.80;0.80;;;15.40;99.90;16.60;101697.00;;;;4984790;28;20280;-60
2022/07/23 04:08:33;;;;;;;0.90;0.90;;;15.50;99.90;17.00;101697.00;;;;4996898;28;20639;-61
2022/07/23 04:11:18;;;;;;;0.90;0.90;;;15.70;99.90;16.80;101700.00;;;;4982335;28;20274;-60
2022/07/23 04:14:25;;;;;;;0.80;0.80;;;15.80;99.90;16.40;101701.00;;;;4998500;28;20552;-60
2022/07/23 04:16:53;;;;;;;1.00;1.00;;;15.60;99.90;16.80;101711.00;;;;4983452;28;20281;-60
2022/07/23 04:19:19;;;;;;;0.80;0.80;;;15.70;99.90;16.90;101694.00;;;;5015038;28;20587;-60
2022/07/23 04:22:08;;;;;;;0.90;0.90;;;15.70;99.90;16.80;101704.00;;;;4998126;28;20193;-60
2022/07/23 04:24:55;;;;;;;0.90;0.90;;;15.70;99.90;16.90;101707.00;;;;4982238;28;20179;-60
2022/07/23 04:27:43;;;;;;;3.17;2.13;;;15.80;99.90;16.60;101706.00;;;;4981769;28;20191;-60
2022/07/23 04:30:29;;;;;;;0.80;0.80;;;15.70;99.90;16.50;101708.00;;;;4984194;28;20206;-60
2022/07/23 04:33:07;;;;;;;1.10;1.10;;;15.60;99.90;17.20;101710.00;;;;4998178;28;20584;-60
2022/07/23 04:36:05;;;;;;;0.87;0.87;;;15.90;99.90;17.70;101699.00;;;;5013787;28;20643;-60
2022/07/23 04:39:05;;;;;;;1.40;1.40;;;16.40;99.90;17.80;101705.00;;;;4983511;28;20633;-60
2022/07/23 04:41:46;;;;;;;0.73;0.73;;;16.60;99.90;17.70;101699.00;;;;5000311;28;20201;-60
2022/07/23 04:44:19;;;;;;;1.27;1.20;;;16.80;99.90;17.90;101703.00;;;;4981608;28;20640;-60
2022/07/23 04:46:52;;;;;;;0.80;0.80;;;16.80;99.90;18.20;101704.00;;;;4981983;28;20706;-60
2022/07/23 04:49:43;;;;;;;0.70;0.70;;;17.10;99.90;18.70;101670.00;;;;4997512;28;20183;-60
2022/07/23 04:52:33;;;;;;;0.60;0.60;;;17.40;99.90;19.30;101699.00;;;;4997869;28;20717;-60
2022/07/23 04:55:18;;;;;;;0.70;0.70;;;17.90;99.90;20.00;101667.00;;;;4981494;28;20651;-60
2022/07/23 04:58:05;;;;;;;0.60;0.60;;;18.60;99.90;20.50;101688.00;;;;4997755;28;20176;-60
2022/07/23 05:00:53;;;;;;;0.50;0.50;;;19.10;99.90;21.60;101686.00;;;;4997425;28;20651;-60
2022/07/23 05:04:03;;;;;;;0.40;0.40;;;19.90;99.90;22.70;101707.00;;;;4983599;28;20236;-61
2022/07/23 05:07:57;;;;;;;0.30;0.30;;;20.80;99.90;23.50;101724.00;;;;4989789;28;20234;-60
2022/07/23 05:10:31;;;;;;;0.20;0.20;;;21.70;99.90;24.40;101763.00;;;;5011477;28;20278;-60
2022/07/23 05:13:19;;;;;;;0.20;0.20;;;22.50;99.90;25.30;101785.00;;;;4981066;28;20761;-61
2022/07/23 05:15:51;;;;;;;0.20;0.20;;;23.30;99.90;25.80;101798.00;;;;5013535;28;20198;-61
2022/07/23 05:18:43;;;;;;;0.20;0.20;;;23.80;99.90;26.40;101820.00;;;;5013694;28;20714;-61
2022/07/23 05:21:28;;;;;;;0.35;0.35;;;24.30;99.90;27.20;101840.00;;;;4982556;28;20188;-61
2022/07/23 05:24:18;;;;;;;0.20;0.20;;;25.00;99.90;27.00;101843.00;;;;4996832;28;20242;-61
2022/07/23 05:27:04;;;;;;;0.17;0.17;;;25.20;99.90;27.80;101848.00;;;;5013140;28;20179;-61
2022/07/23 05:29:48;;;;;;;0.60;0.60;;;25.80;99.90;26.70;101854.00;;;;4997618;28;20582;-61
2022/07/23 05:32:33;;;;;;;0.20;0.20;;;25.70;99.90;28.20;101857.00;;;;4997612;28;20265;-61
2022/07/23 05:35:27;;;;;;;0.10;0.10;;;26.00;99.90;28.90;101869.00;;;;4997008;28;20336;-61
2022/07/23 05:38:23;;;;;;;0.10;0.10;;;26.60;99.90;28.80;101865.00;;;;4996558;28;20275;-61
2022/07/23 05:41:50;;;;;;;0.10;0.10;;;26.60;99.90;29.20;101872.00;;;;4995534;28;20196;-61
2022/07/23 05:44:39;;;;;;;0.10;0.10;;;27.10;99.90;29.00;101871.00;;;;5002368;28;20207;-61
2022/07/23 05:47:41;;;;;;;0.20;0.20;;;27.00;99.90;27.80;101881.00;;;;4996539;28;20531;-61
2022/07/23 05:50:44;;;;;;;0.10;0.10;;;26.60;99.90;27.40;101890.00;;;;5013100;28;20229;-61
2022/07/23 05:53:30;;;;;;;0.30;0.30;;;26.80;99.90;26.50;101865.00;;;;5012960;28;20754;-61
2022/07/23 05:56:36;;;;;;;0.10;0.10;;;25.40;99.90;27.50;101884.00;;;;4996459;28;20708;-61
2022/07/23 05:59:21;;;;;;;0.10;0.10;;;25.40;99.90;29.40;101879.00;;;;4980223;28;20622;-61
2022/07/23 06:02:06;;;;;;;0.10;0.10;;;26.70;99.90;30.90;101901.00;;;;4996597;28;20195;-62
2022/07/23 06:04:46;;;;;;;0.10;0.10;;;28.20;99.90;31.90;101907.00;;;;4980054;28;20643;-62
2022/07/23 06:07:13;;;;;;;0.10;0.10;;;29.20;99.90;30.50;101914.00;;;;5012617;28;20793;-62
2022/07/23 06:09:49;;;;;;;0.10;0.10;;;29.20;99.90;30.90;101912.00;;;;5012534;28;20183;-62
2022/07/23 06:12:39;;;;;;;0.25;0.25;;;29.20;99.90;31.50;101906.00;;;;4996180;28;20565;-63
2022/07/23 06:15:26;;;;;;;0.10;0.10;;;29.40;99.90;31.30;101898.00;;;;4979894;28;20298;-62
2022/07/23 06:18:11;;;;;;;0.10;0.10;;;29.30;99.90;32.40;101909.00;;;;5013717;28;20183;-62
2022/07/23 06:21:01;;;;;;;0.10;0.10;;;30.00;99.90;32.80;101903.00;;;;4996257;28;20222;-62
2022/07/23 06:23:45;;;;;;;0.10;0.10;;;30.40;99.90;30.50;101920.00;;;;4981847;28;20221;-62
2022/07/23 06:26:31;;;;;;;0.10;0.10;;;29.40;99.90;31.70;101927.00;;;;5012756;28;20167;-62
2022/07/23 06:29:33;;;;;;;0.10;0.10;;;29.30;99.90;33.60;101913.00;;;;5012869;28;20581;-62
2022/07/23 06:32:22;;;;;;;0.10;0.10;;;30.60;99.90;30.40;101927.00;;;;4982290;28;20211;-62
2022/07/23 06:35:10;;;;;;;0.20;0.20;;;28.90;99.90;30.90;101926.00;;;;4998167;28;20192;-62
2022/07/23 06:38:11;;;;;;;0.10;0.10;;;28.80;99.90;32.00;101928.00;;;;5012365;28;20183;-62
2022/07/23 06:41:15;;;;;;;0.40;0.40;;;29.50;99.90;32.10;101926.00;;;;4996388;28;20282;-62
2022/07/23 06:44:21;;;;;;;0.10;0.10;;;30.70;99.90;31.70;101925.00;;;;5000011;28;20195;-62
2022/07/23 06:47:07;;;;;;;0.52;0.30;;;29.80;99.90;31.30;101917.00;;;;4995699;28;20195;-62
2022/07/23 06:50:13;;;;;;;0.10;0.10;;;30.40;99.90;27.70;101942.00;;;;5012106;28;20178;-61
2022/07/23 06:53:37;;;;;;;0.30;0.30;;;27.70;99.90;29.60;101930.00;;;;4999973;28;20571;-62
2022/07/23 06:56:38;;;;;;;0.10;0.10;;;28.00;99.90;28.50;101917.00;;;;5015568;28;20635;-62
2022/07/23 06:59:40;;;;;;;0.50;0.50;;;27.60;99.90;29.00;101939.00;;;;5016365;28;20183;-62
2022/07/23 07:02:44;;;;;;;0.10;0.10;;;27.50;99.90;28.60;101943.00;;;;5016416;28;20194;-62
2022/07/23 07:05:30;;;;;;;0.10;0.10;;;27.40;99.90;29.60;101944.00;;;;5015932;28;20191;-62
2022/07/23 07:08:47;;;;;;;0.10;0.10;;;27.90;99.90;30.10;101939.00;;;;4999758;28;20187;-62
2022/07/23 07:11:48;;;;;;;0.10;0.10;;;27.80;99.90;32.00;101946.00;;;;5004731;28;20249;-62
2022/07/23 07:14:32;;;;;;;0.10;0.10;;;29.60;99.90;33.20;101946.00;;;;5016818;28;20179;-62
2022/07/23 07:17:22;;;;;;;0.10;0.10;;;30.70;99.90;30.80;101956.00;;;;5017078;28;20186;-62
2022/07/23 07:20:09;;;;;;;0.10;0.10;;;29.90;99.90;32.90;101938.00;;;;5015760;28;20203;-62
2022/07/23 07:22:54;;;;;;;1.67;1.35;;;30.50;99.90;29.10;101959.00;;;;5002812;28;20195;-62
2022/07/23 07:25:37;;;;;;;0.10;0.10;;;29.90;99.90;31.20;101935.00;;;;5000626;28;20179;-62
2022/07/23 07:28:25;;;;;;;0.10;0.10;;;29.40;99.90;31.70;101952.00;;;;4997654;28;20204;-62
2022/07/23 07:31:09;;;;;;;0.32;0.32;;;29.60;99.90;32.70;101944.00;;;;4964860;28;20588;-62
2022/07/23 07:33:40;;;;;;;0.10;0.10;;;30.30;99.90;29.20;101962.00;;;;4982566;28;20215;-62
2022/07/23 07:36:13;;;;;;;0.10;0.10;;;29.40;99.90;31.70;101947.00;;;;5015354;28;20171;-62
2022/07/23 07:38:50;;;;;;;0.22;0.22;;;29.90;99.90;29.70;101967.00;;;;4982604;28;20192;-62
2022/07/23 07:41:22;;;;;;;0.57;0.40;;;29.00;99.90;29.40;101970.00;;;;4982673;28;20238;-62
2022/07/23 07:44:02;;;;;;;0.10;0.10;;;29.20;99.90;31.60;101973.00;;;;5007067;28;20207;-62
2022/07/23 07:46:55;;;;;;;0.10;0.10;;;29.30;99.90;33.60;101960.00;;;;4998585;28;20729;-62
2022/07/23 07:49:35;;;;;;;0.08;0.08;;;30.70;99.90;30.30;101965.00;;;;4997169;28;20291;-62
2022/07/23 07:52:05;;;;;;;0.05;0.05;;;30.00;99.90;29.20;101983.00;;;;4982825;28;20208;-62
2022/07/23 07:54:43;;;;;;;0.65;0.65;;;29.00;99.90;24.60;101950.00;;;;4982678;28;20195;-61
2022/07/23 07:57:32;;;;;;;0.10;0.10;;;26.60;99.90;28.60;101980.00;;;;4983036;28;20183;-61
2022/07/23 08:00:17;;;;;;;0.10;0.10;;;26.60;99.90;31.50;101973.00;;;;5014887;28;20187;-62
2022/07/23 08:03:14;;;;;;;0.10;0.10;;;28.90;99.90;29.70;101977.00;;;;4998717;28;20183;-61
2022/07/23 08:06:24;;;;;;;0.15;0.15;;;28.30;99.90;30.50;101987.00;;;;4979010;28;20596;-62
2022/07/23 08:09:17;;;;;;;0.10;0.10;;;28.70;99.90;27.00;101971.00;;;;4963498;28;20180;-62
2022/07/23 08:12:35;;;;;;;0.10;0.10;;;27.60;99.90;31.50;101981.00;;;;4995454;28;20592;-62
2022/07/23 08:15:31;;;;;;;0.10;0.10;;;28.50;99.90;33.40;101977.00;;;;4994988;28;20223;-62
2022/07/23 08:18:30;;;;;;;0.10;0.10;;;30.80;99.90;34.30;101964.00;;;;4958453;28;20200;-63
2022/07/23 08:21:31;;;;;;;0.10;0.10;;;32.30;99.90;32.10;101974.00;;;;4998797;28;20647;-61
2022/07/23 08:24:39;;;;;;;0.10;0.10;;;30.70;99.90;34.70;101957.00;;;;4978746;28;20539;-64
2022/07/23 08:28:02;;;;;;;0.15;0.15;;;31.90;99.60;32.90;101952.00;;;;5012015;28;20178;-64
2022/07/23 08:31:15;;;;;;;0.00;0.00;;;32.40;97.90;30.50;101961.00;;;;4998244;28;20176;-63
2022/07/23 08:34:37;;;;;;;0.10;0.10;;;30.50;99.00;32.50;101955.00;;;;5014116;28;20260;-62
2022/07/23 08:37:42;;;;;;;0.10;0.10;;;30.30;99.90;34.30;101949.00;;;;5015442;28;20206;-62
2022/07/23 08:40:50;;;;;;;0.10;0.10;;;31.70;98.30;32.20;101951.00;;;;5015347;28;20491;-62
2022/07/23 08:43:45;;;;;;;0.25;0.25;;;32.40;96.50;31.10;101969.00;;;;5015104;28;20183;-62
2022/07/23 08:46:21;;;;;;;0.10;0.10;;;30.40;97.60;28.30;101967.00;;;;5006591;28;20215;-58
2022/07/23 08:48:48;;;;;;;1.83;0.82;;;29.20;98.00;26.60;101974.00;;;;5031798;28;20622;-63
2022/07/23 08:51:15;;;;;;;2.35;2.15;;;26.90;99.90;27.60;101974.00;;;;5016762;28;20556;-67
2022/07/23 08:53:53;;;;;;;0.98;0.63;;;26.60;99.90;27.30;101981.00;;;;4999950;28;20524;-63
2022/07/23 08:56:37;;;;;;;0.10;0.10;;;27.00;99.90;29.80;101980.00;;;;4983066;28;20283;-62
2022/07/23 08:59:21;;;;;;;0.10;0.10;;;27.80;99.90;31.10;101980.00;;;;5014074;28;20253;-63
2022/07/23 09:01:53;;;;;;;0.10;0.10;;;29.10;99.90;29.60;101981.00;;;;4994733;28;20192;-63
2022/07/23 09:04:36;;;;;;;0.30;0.30;;;28.50;99.90;29.00;101987.00;;;;4994997;28;20219;-64
2022/07/23 09:07:05;;;;;;;0.10;0.10;;;28.30;99.90;28.30;101962.00;;;;4995259;28;20644;-64
2022/07/23 09:09:31;;;;;;;0.10;0.10;;;27.40;99.90;28.60;101993.00;;;;4994564;28;20643;-66
2022/07/23 09:12:12;;;;;;;0.10;0.10;;;27.00;99.90;30.10;101957.00;;;;4977575;28;20294;-65
2022/07/23 09:14:46;;;;;;;0.10;0.10;;;28.00;99.90;30.70;101961.00;;;;4994935;28;20188;-64
2022/07/23 09:17:45;;;;;;;0.10;0.10;;;28.60;99.90;28.00;101985.00;;;;4992896;28;20625;-63
2022/07/23 09:21:09;;;;;;;0.10;0.10;;;28.10;99.90;30.10;101985.00;;;;4979615;28;20203;-62
2022/07/23 09:24:20;;;;;;;1.20;1.20;;;27.70;99.90;27.20;101984.00;;;;5002106;28;20203;-61
2022/07/23 09:27:23;;;;;;;0.10;0.10;;;28.00;99.90;30.10;101994.00;;;;4996890;28;20176;-61
2022/07/23 09:30:29;;;;;;;0.25;0.25;;;27.70;99.90;27.20;102001.00;;;;4997686;28;20191;-60
2022/07/23 09:33:25;;;;;;;0.10;0.10;;;27.70;99.90;29.40;101995.00;;;;5011410;28;20236;-60
2022/07/23 09:36:09;;;;;;;0.10;0.10;;;27.70;99.90;29.30;101990.00;;;;4997684;28;20603;-61
2022/07/23 09:39:15;;;;;;;0.25;0.25;;;28.10;99.90;29.40;101990.00;;;;5014337;28;20183;-61
2022/07/23 09:42:13;;;;;;;0.10;0.10;;;28.30;99.80;31.70;101973.00;;;;4977693;28;20199;-63
2022/07/23 09:45:23;;;;;;;0.20;0.20;;;29.20;99.50;30.80;101979.00;;;;4977690;28;20238;-63
2022/07/23 09:48:33;;;;;;;0.03;0.03;;;29.30;98.60;32.90;101972.00;;;;4978801;28;20259;-63
2022/07/23 09:54:40;;;;;;;0.10;0.10;;;31.60;95.80;33.90;101961.00;;;;4982832;28;20251;-64
2022/07/23 09:58:13;;;;;;;0.10;0.10;;;32.10;94.20;33.90;101950.00;;;;4998397;28;20202;-64
2022/07/23 10:01:32;;;;;;;0.10;0.10;;;32.90;93.50;31.90;101954.00;;;;5005172;28;20307;-63
2022/07/23 10:04:35;;;;;;;0.10;0.10;;;32.20;92.70;32.60;101954.00;;;;4996262;28;20258;-63
2022/07/23 10:07:24;;;;;;;0.10;0.10;;;31.00;93.90;32.80;101967.00;;;;4996438;28;20191;-64
2022/07/23 10:10:49;;;;;;;0.10;0.10;;;31.20;93.80;32.90;101957.00;;;;4996174;28;20631;-63
2022/07/23 10:14:16;;;;;;;0.10;0.10;;;31.10;93.70;32.00;101973.00;;;;4993933;28;20200;-63
2022/07/23 10:17:03;;;;;;;0.10;0.10;;;30.70;94.40;31.80;101959.00;;;;4994208;28;20191;-64
2022/07/23 10:19:50;;;;;;;0.43;0.43;;;30.30;94.10;32.80;101965.00;;;;4976310;28;20188;-63
2022/07/23 10:33:37;;;;;;;0.10;0.10;;;29.40;95.10;31.20;101979.00;;;;5131609;27;21060;-64
2022/07/23 10:39:48;;;;;;;0.10;0.10;;;29.80;95.50;32.40;101973.00;;;;5102303;28;20196;-64
2022/07/23 10:42:18;;;;;;;0.10;0.10;;;30.60;94.90;31.20;101964.00;;;;5110326;28;20188;-64
2022/07/23 10:45:39;;;;;;;0.47;0.47;;;30.60;93.70;31.70;101971.00;;;;5093287;28;20214;-64
2022/07/23 10:48:21;;;;;;;0.40;0.40;;;30.50;94.70;28.10;101964.00;;;;5093289;28;20173;-63
2022/07/23 10:51:15;;;;;;;0.35;0.35;;;29.00;94.50;29.30;101964.00;;;;5092532;28;20188;-64
2022/07/23 10:53:56;;;;;;;0.20;0.20;;;29.00;95.20;30.50;101981.00;;;;5100233;28;20208;-64
2022/07/23 10:56:56;;;;;;;0.47;0.47;;;28.70;95.30;28.50;101945.00;;;;5106795;28;20525;-63
2022/07/23 11:00:00;;;;;;;0.30;0.30;;;28.50;96.10;30.90;101973.00;;;;5106258;28;20173;-64
2022/07/23 11:03:08;;;;;;;0.95;0.95;;;29.00;96.20;31.00;101970.00;;;;5105767;28;20192;-64
2022/07/23 11:06:06;;;;;;;0.10;0.10;;;29.50;95.70;32.70;101965.00;;;;5088938;28;20177;-64
2022/07/23 11:09:25;;;;;;;0.60;0.60;;;30.40;95.10;33.00;101961.00;;;;5109258;28;20543;-64
2022/07/23 11:12:31;;;;;;;0.10;0.10;;;30.70;94.80;32.40;101957.00;;;;5110480;28;20204;-64
2022/07/23 11:15:24;;;;;;;0.10;0.10;;;31.20;93.80;32.50;101931.00;;;;5108927;28;20176;-64
2022/07/23 11:18:10;;;;;;;0.55;0.40;;;31.30;93.00;34.70;101939.00;;;;5110455;28;20163;-64
2022/07/23 11:25:10;;;;;;;0.10;0.10;;;33.10;91.70;34.70;101949.00;;;;5109208;28;20192;-64
2022/07/23 11:27:56;;;;;;;0.10;0.10;;;33.70;90.00;34.70;101945.00;;;;5092466;28;20275;-64
2022/07/23 11:30:48;;;;;;;1.02;0.25;;;33.30;89.90;30.90;101942.00;;;;5110166;28;20574;-64
2022/07/23 11:33:32;;;;;;;0.10;0.10;;;32.00;90.30;33.90;101940.00;;;;5110487;28;20275;-64
2022/07/23 11:36:52;;;;;;;0.00;0.00;;;32.20;90.10;33.40;101948.00;;;;5109740;28;20179;-64
2022/07/23 11:39:57;;;;;;;0.17;0.17;;;32.20;89.10;33.40;101939.00;;;;5109694;28;20229;-64
2022/07/23 11:43:00;;;;;;;0.10;0.10;;;31.70;89.50;34.10;101921.00;;;;5104194;28;20532;-63
2022/07/23 11:46:02;;;;;;;0.10;0.10;;;32.40;87.50;34.40;101940.00;;;;5088184;28;20200;-63
2022/07/23 11:48:43;;;;;;;0.10;0.10;;;33.20;86.00;33.10;101935.00;;;;5064518;28;20566;-63
2022/07/23 13:00:09;;;;;;;0.30;0.30;;;27.80;92.00;28.20;101943.00;;;;5076839;28;20189;-62
2022/07/23 13:03:32;;;;;;;0.25;0.25;;;27.70;91.70;29.60;101927.00;;;;5091783;28;20211;-62
2022/07/23 13:06:09;;;;;;;0.25;0.25;;;27.90;92.30;29.60;101936.00;;;;5055549;28;20197;-62
2022/07/23 13:09:00;;;;;;;0.10;0.10;;;28.00;92.30;30.20;101935.00;;;;5076834;28;20203;-61
2022/07/23 13:11:48;;;;;;;1.85;1.17;;;28.30;92.20;28.80;101930.00;;;;5076701;28;20209;-61
2022/07/23 13:14:27;;;;;;;0.28;0.28;;;28.00;92.40;28.50;101942.00;;;;5061539;28;20199;-62
2022/07/23 13:17:18;;;;;;;0.10;0.10;;;27.60;92.80;29.40;101927.00;;;;5076435;28;20643;-61
2022/07/23 13:20:03;;;;;;;0.20;0.20;;;27.90;92.90;29.00;101938.00;;;;5061272;28;20189;-61
2022/07/23 13:22:47;;;;;;;0.10;0.10;;;27.70;92.80;28.90;101939.00;;;;5076343;28;20642;-62
2022/07/23 13:25:31;;;;;;;0.10;0.10;;;27.60;93.40;29.50;101942.00;;;;5076657;28;20185;-62
2022/07/23 13:32:33;;;;;;;0.32;0.32;;;28.00;93.20;30.20;101934.00;;;;5081747;28;20224;-63
2022/07/23 13:35:00;;;;;;;0.10;0.10;;;28.30;93.20;29.40;101934.00;;;;5062675;28;20195;-62
2022/07/23 13:37:30;;;;;;;0.10;0.10;;;28.50;92.70;29.60;101948.00;;;;5092793;28;20196;-62
2022/07/23 13:40:23;;;;;;;1.23;1.23;;;28.10;93.60;28.90;101942.00;;;;5076304;28;20189;-62
2022/07/23 13:42:56;;;;;;;0.35;0.28;;;27.80;93.30;28.50;101926.00;;;;5051957;28;20338;-62
2022/07/23 13:45:24;;;;;;;0.25;0.25;;;27.50;93.80;28.80;101940.00;;;;5059250;28;20193;-62
2022/07/23 13:49:12;;;;;;;0.10;0.10;;;27.50;93.80;29.20;101923.00;;;;5092317;28;20177;-62
2022/07/23 13:52:01;;;;;;;0.25;0.25;;;27.80;94.00;29.10;101919.00;;;;5068988;28;20228;-62
2022/07/23 13:54:54;;;;;;;0.25;0.15;;;27.80;93.90;29.30;101922.00;;;;5059864;28;20192;-62
2022/07/23 13:57:42;;;;;;;0.63;0.63;;;27.80;94.80;29.90;101918.00;;;;5061581;28;20185;-62
2022/07/23 14:00:33;;;;;;;0.73;0.73;;;28.20;94.70;29.20;101919.00;;;;5061047;28;21252;-62
2022/07/23 14:03:29;;;;;;;0.10;0.10;;;27.90;95.00;29.80;101913.00;;;;5061226;28;20209;-62
2022/07/23 14:06:16;;;;;;;0.60;0.50;;;28.00;95.50;29.80;101909.00;;;;5061388;28;20189;-63
2022/07/23 14:08:59;;;;;;;1.35;1.08;;;28.40;94.90;29.10;101917.00;;;;5060181;28;20284;-62
2022/07/23 14:11:48;;;;;;;0.10;0.10;;;27.80;94.90;28.10;101920.00;;;;5092351;28;20582;-62
2022/07/23 14:14:35;;;;;;;0.10;0.10;;;27.30;95.00;28.80;101922.00;;;;5075661;28;20200;-62
2022/07/23 14:17:01;;;;;;;0.10;0.10;;;27.30;95.50;28.70;101924.00;;;;5075341;28;20188;-62
2022/07/23 14:19:51;;;;;;;0.10;0.10;;;27.30;95.00;29.30;101919.00;;;;5075582;28;20197;-62
2022/07/23 14:22:39;;;;;;;0.20;0.20;;;27.40;95.60;29.60;101926.00;;;;5075528;28;20204;-62
2022/07/23 14:25:28;;;;;;;0.20;0.20;;;27.90;95.20;28.90;101925.00;;;;5076803;28;20237;-62
2022/07/23 14:28:18;;;;;;;0.10;0.10;;;27.50;95.50;29.90;101904.00;;;;5076102;28;20192;-62
2022/07/23 14:31:02;;;;;;;0.10;0.10;;;28.00;95.20;29.70;101915.00;;;;5048251;28;20228;-62
2022/07/23 14:33:51;;;;;;;0.10;0.10;;;28.00;95.40;29.70;101917.00;;;;5075263;28;20276;-62
2022/07/23 14:36:35;;;;;;;0.10;0.10;;;28.00;95.60;30.10;101899.00;;;;5075571;28;20226;-63
2022/07/23 14:39:08;;;;;;;0.10;0.10;;;28.30;95.50;29.60;101913.00;;;;5075374;28;20271;-63